sensor_id;sensor_type;location;lat;lon;timestamp;P1;durP1;ratioP1;P2;durP2;ratioP2
3193;SDS011;1608;50.860;13.466;2023-02-15T00:00:16;37.00;;;17.87;;
3193;SDS011;1608;50.860;13.466;2023-02-15T00:02:43;24.43;;;15.60;;
3193;SDS011;1608;50.860;13.466;2023-02-15T00:05:10;28.80;;;15.13;;
3193;SDS011;1608;50.860;13.466;2023-02-15T00:07:38;35.90;;;16.33;;
3193;SDS011;1608;50.860;13.466;2023-02-15T00:10:05;23.03;;;13.80;;
3193;SDS011;1608;50.860;13.466;2023-02-15T00:12:33;25.17;;;13.67;;
3193;SDS011;1608;50.860;13.466;2023-02-15T00:15:00;29.03;;;13.03;;
3193;SDS011;1608;50.860;13.466;2023-02-15T00:17:27;24.83;;;14.60;;
3193;SDS011;1608;50.860;13.466;2023-02-15T00:19:53;24.10;;;12.00;;
3193;SDS011;1608;50.860;13.466;2023-02-15T00:22:20;31.23;;;12.60;;
3193;SDS011;1608;50.860;13.466;2023-02-15T00:24:48;26.90;;;13.80;;
3193;SDS011;1608;50.860;13.466;2023-02-15T00:27:15;19.50;;;10.97;;
3193;SDS011;1608;50.860;13.466;2023-02-15T00:29:42;25.53;;;13.33;;
3193;SDS011;1608;50.860;13.466;2023-02-15T00:32:09;20.47;;;11.37;;
3193;SDS011;1608;50.860;13.466;2023-02-15T00:34:36;27.80;;;10.80;;
3193;SDS011;1608;50.860;13.466;2023-02-15T00:37:03;23.13;;;12.57;;
3193;SDS011;1608;50.860;13.466;2023-02-15T00:39:29;20.23;;;10.90;;
3193;SDS011;1608;50.860;13.466;2023-02-15T00:41:58;19.93;;;9.80;;
3193;SDS011;1608;50.860;13.466;2023-02-15T00:44:24;17.07;;;9.17;;
3193;SDS011;1608;50.860;13.466;2023-02-15T00:46:51;12.47;;;6.93;;
3193;SDS011;1608;50.860;13.466;2023-02-15T00:49:18;17.37;;;8.53;;
3193;SDS011;1608;50.860;13.466;2023-02-15T00:51:45;11.67;;;8.53;;
3193;SDS011;1608;50.860;13.466;2023-02-15T00:54:12;14.63;;;6.60;;
3193;SDS011;1608;50.860;13.466;2023-02-15T00:56:38;17.57;;;10.20;;
3193;SDS011;1608;50.860;13.466;2023-02-15T00:59:07;19.43;;;10.37;;
3193;SDS011;1608;50.860;13.466;2023-02-15T01:01:34;12.97;;;7.40;;
3193;SDS011;1608;50.860;13.466;2023-02-15T01:04:01;17.00;;;8.77;;
3193;SDS011;1608;50.860;13.466;2023-02-15T01:06:28;10.33;;;7.47;;
3193;SDS011;1608;50.860;13.466;2023-02-15T01:08:55;10.83;;;7.57;;
3193;SDS011;1608;50.860;13.466;2023-02-15T01:11:22;18.50;;;7.17;;
3193;SDS011;1608;50.860;13.466;2023-02-15T01:13:50;12.57;;;7.03;;
3193;SDS011;1608;50.860;13.466;2023-02-15T01:16:19;14.23;;;6.37;;
3193;SDS011;1608;50.860;13.466;2023-02-15T01:18:46;14.20;;;6.90;;
3193;SDS011;1608;50.860;13.466;2023-02-15T01:21:14;11.63;;;8.03;;
3193;SDS011;1608;50.860;13.466;2023-02-15T01:23:42;11.10;;;6.57;;
3193;SDS011;1608;50.860;13.466;2023-02-15T01:26:09;17.17;;;7.10;;
3193;SDS011;1608;50.860;13.466;2023-02-15T01:28:37;15.13;;;8.63;;
3193;SDS011;1608;50.860;13.466;2023-02-15T01:31:04;10.83;;;6.70;;
3193;SDS011;1608;50.860;13.466;2023-02-15T01:33:34;14.03;;;8.27;;
3193;SDS011;1608;50.860;13.466;2023-02-15T01:36:01;24.00;;;7.87;;
3193;SDS011;1608;50.860;13.466;2023-02-15T01:38:28;50.23;;;8.63;;
3193;SDS011;1608;50.860;13.466;2023-02-15T01:40:55;11.70;;;7.37;;
3193;SDS011;1608;50.860;13.466;2023-02-15T01:43:43;132.07;;;47.60;;
3193;SDS011;1608;50.860;13.466;2023-02-15T01:46:11;15.53;;;7.00;;
3193;SDS011;1608;50.860;13.466;2023-02-15T01:48:42;19.33;;;8.23;;
3193;SDS011;1608;50.860;13.466;2023-02-15T01:51:12;19.90;;;9.20;;
3193;SDS011;1608;50.860;13.466;2023-02-15T01:53:43;20.03;;;7.90;;
3193;SDS011;1608;50.860;13.466;2023-02-15T01:56:15;13.37;;;6.43;;
3193;SDS011;1608;50.860;13.466;2023-02-15T01:58:45;12.30;;;6.87;;
3193;SDS011;1608;50.860;13.466;2023-02-15T02:01:12;18.00;;;7.43;;
3193;SDS011;1608;50.860;13.466;2023-02-15T02:03:43;11.67;;;5.87;;
3193;SDS011;1608;50.860;13.466;2023-02-15T02:06:20;11.23;;;6.10;;
3193;SDS011;1608;50.860;13.466;2023-02-15T02:08:47;15.53;;;6.87;;
3193;SDS011;1608;50.860;13.466;2023-02-15T02:11:15;12.83;;;7.63;;
3193;SDS011;1608;50.860;13.466;2023-02-15T02:13:42;9.13;;;6.23;;
3193;SDS011;1608;50.860;13.466;2023-02-15T02:16:11;18.90;;;7.23;;
3193;SDS011;1608;50.860;13.466;2023-02-15T02:18:47;11.90;;;8.97;;
3193;SDS011;1608;50.860;13.466;2023-02-15T02:21:32;12.63;;;7.80;;
3193;SDS011;1608;50.860;13.466;2023-02-15T02:33:07;12.60;;;6.57;;
3193;SDS011;1608;50.860;13.466;2023-02-15T02:36:03;8.50;;;5.07;;
3193;SDS011;1608;50.860;13.466;2023-02-15T02:38:41;16.70;;;7.53;;
3193;SDS011;1608;50.860;13.466;2023-02-15T02:41:16;17.10;;;6.53;;
3193;SDS011;1608;50.860;13.466;2023-02-15T02:43:50;15.10;;;5.20;;
3193;SDS011;1608;50.860;13.466;2023-02-15T02:46:25;10.97;;;5.27;;
3193;SDS011;1608;50.860;13.466;2023-02-15T02:48:56;7.43;;;4.30;;
3193;SDS011;1608;50.860;13.466;2023-02-15T02:51:23;8.13;;;4.67;;
3193;SDS011;1608;50.860;13.466;2023-02-15T02:53:50;10.23;;;5.23;;
3193;SDS011;1608;50.860;13.466;2023-02-15T02:56:21;7.90;;;4.60;;
3193;SDS011;1608;50.860;13.466;2023-02-15T02:58:53;7.53;;;3.93;;
3193;SDS011;1608;50.860;13.466;2023-02-15T03:01:27;7.67;;;4.83;;
3193;SDS011;1608;50.860;13.466;2023-02-15T03:04:00;5.27;;;3.70;;
3193;SDS011;1608;50.860;13.466;2023-02-15T03:06:33;6.13;;;4.17;;
3193;SDS011;1608;50.860;13.466;2023-02-15T03:09:06;7.30;;;3.60;;
3193;SDS011;1608;50.860;13.466;2023-02-15T03:11:39;14.57;;;6.13;;
3193;SDS011;1608;50.860;13.466;2023-02-15T03:14:07;11.03;;;4.03;;
3193;SDS011;1608;50.860;13.466;2023-02-15T03:16:35;4.07;;;3.17;;
3193;SDS011;1608;50.860;13.466;2023-02-15T03:19:05;4.77;;;3.40;;
3193;SDS011;1608;50.860;13.466;2023-02-15T03:21:36;5.87;;;4.50;;
3193;SDS011;1608;50.860;13.466;2023-02-15T03:24:14;5.03;;;2.80;;
3193;SDS011;1608;50.860;13.466;2023-02-15T03:26:46;8.07;;;3.33;;
3193;SDS011;1608;50.860;13.466;2023-02-15T03:29:17;4.50;;;2.40;;
3193;SDS011;1608;50.860;13.466;2023-02-15T03:31:46;4.60;;;3.23;;
3193;SDS011;1608;50.860;13.466;2023-02-15T03:34:18;4.20;;;2.70;;
3193;SDS011;1608;50.860;13.466;2023-02-15T03:36:46;2.93;;;2.07;;
3193;SDS011;1608;50.860;13.466;2023-02-15T03:39:18;8.23;;;2.87;;
3193;SDS011;1608;50.860;13.466;2023-02-15T03:41:54;4.07;;;2.67;;
3193;SDS011;1608;50.860;13.466;2023-02-15T03:44:26;3.73;;;2.30;;
3193;SDS011;1608;50.860;13.466;2023-02-15T03:46:56;5.53;;;2.90;;
3193;SDS011;1608;50.860;13.466;2023-02-15T03:49:30;5.63;;;3.43;;
3193;SDS011;1608;50.860;13.466;2023-02-15T03:52:04;4.63;;;2.80;;
3193;SDS011;1608;50.860;13.466;2023-02-15T03:54:34;4.90;;;3.13;;
3193;SDS011;1608;50.860;13.466;2023-02-15T03:57:09;3.80;;;2.80;;
3193;SDS011;1608;50.860;13.466;2023-02-15T03:59:55;8.97;;;3.53;;
3193;SDS011;1608;50.860;13.466;2023-02-15T04:02:41;6.07;;;4.00;;
3193;SDS011;1608;50.860;13.466;2023-02-15T04:05:20;7.50;;;3.37;;
3193;SDS011;1608;50.860;13.466;2023-02-15T04:07:47;4.23;;;3.10;;
3193;SDS011;1608;50.860;13.466;2023-02-15T04:10:13;9.40;;;3.93;;
3193;SDS011;1608;50.860;13.466;2023-02-15T04:12:58;8.57;;;3.80;;
3193;SDS011;1608;50.860;13.466;2023-02-15T04:15:25;6.03;;;3.20;;
3193;SDS011;1608;50.860;13.466;2023-02-15T04:18:09;6.13;;;3.00;;
3193;SDS011;1608;50.860;13.466;2023-02-15T04:20:37;5.37;;;2.40;;
3193;SDS011;1608;50.860;13.466;2023-02-15T04:23:22;11.03;;;4.57;;
3193;SDS011;1608;50.860;13.466;2023-02-15T04:26:06;4.50;;;2.97;;
3193;SDS011;1608;50.860;13.466;2023-02-15T04:28:32;16.60;;;3.03;;
3193;SDS011;1608;50.860;13.466;2023-02-15T04:30:59;6.63;;;4.83;;
3193;SDS011;1608;50.860;13.466;2023-02-15T04:33:26;6.73;;;3.53;;
3193;SDS011;1608;50.860;13.466;2023-02-15T04:35:54;7.53;;;3.27;;
3193;SDS011;1608;50.860;13.466;2023-02-15T04:38:21;5.73;;;4.10;;
3193;SDS011;1608;50.860;13.466;2023-02-15T04:40:49;4.70;;;3.60;;
3193;SDS011;1608;50.860;13.466;2023-02-15T04:43:17;4.13;;;3.30;;
3193;SDS011;1608;50.860;13.466;2023-02-15T04:45:47;3.60;;;3.30;;
3193;SDS011;1608;50.860;13.466;2023-02-15T04:48:15;3.70;;;2.20;;
3193;SDS011;1608;50.860;13.466;2023-02-15T04:50:42;19.13;;;9.30;;
3193;SDS011;1608;50.860;13.466;2023-02-15T04:53:10;17.80;;;8.17;;
3193;SDS011;1608;50.860;13.466;2023-02-15T04:55:37;14.97;;;7.10;;
3193;SDS011;1608;50.860;13.466;2023-02-15T04:58:04;13.03;;;6.90;;
3193;SDS011;1608;50.860;13.466;2023-02-15T05:00:31;13.40;;;5.30;;
3193;SDS011;1608;50.860;13.466;2023-02-15T05:02:58;17.33;;;6.20;;
3193;SDS011;1608;50.860;13.466;2023-02-15T05:05:25;18.57;;;10.33;;
3193;SDS011;1608;50.860;13.466;2023-02-15T05:07:51;24.40;;;14.10;;
3193;SDS011;1608;50.860;13.466;2023-02-15T05:10:20;31.23;;;14.10;;
3193;SDS011;1608;50.860;13.466;2023-02-15T05:12:47;21.53;;;11.70;;
3193;SDS011;1608;50.860;13.466;2023-02-15T05:15:14;21.00;;;10.10;;
3193;SDS011;1608;50.860;13.466;2023-02-15T05:17:41;14.20;;;10.33;;
3193;SDS011;1608;50.860;13.466;2023-02-15T05:20:08;20.53;;;10.03;;
3193;SDS011;1608;50.860;13.466;2023-02-15T05:22:35;21.07;;;11.33;;
3193;SDS011;1608;50.860;13.466;2023-02-15T05:25:02;18.90;;;9.00;;
3193;SDS011;1608;50.860;13.466;2023-02-15T05:27:48;7.37;;;5.70;;
3193;SDS011;1608;50.860;13.466;2023-02-15T05:30:32;10.80;;;5.90;;
3193;SDS011;1608;50.860;13.466;2023-02-15T05:32:59;10.97;;;5.17;;
3193;SDS011;1608;50.860;13.466;2023-02-15T05:35:26;8.60;;;6.20;;
3193;SDS011;1608;50.860;13.466;2023-02-15T05:37:52;7.47;;;5.53;;
3193;SDS011;1608;50.860;13.466;2023-02-15T05:40:19;11.67;;;6.43;;
3193;SDS011;1608;50.860;13.466;2023-02-15T05:42:47;10.90;;;7.10;;
3193;SDS011;1608;50.860;13.466;2023-02-15T05:45:14;8.70;;;7.00;;
3193;SDS011;1608;50.860;13.466;2023-02-15T05:47:41;10.70;;;6.93;;
3193;SDS011;1608;50.860;13.466;2023-02-15T05:50:09;16.23;;;7.23;;
3193;SDS011;1608;50.860;13.466;2023-02-15T05:52:36;11.60;;;5.90;;
3193;SDS011;1608;50.860;13.466;2023-02-15T05:55:03;10.43;;;7.50;;
3193;SDS011;1608;50.860;13.466;2023-02-15T05:57:31;13.57;;;8.03;;
3193;SDS011;1608;50.860;13.466;2023-02-15T05:59:59;9.23;;;6.10;;
3193;SDS011;1608;50.860;13.466;2023-02-15T06:02:29;10.87;;;5.70;;
3193;SDS011;1608;50.860;13.466;2023-02-15T06:04:56;13.03;;;5.67;;
3193;SDS011;1608;50.860;13.466;2023-02-15T06:07:22;10.63;;;5.67;;
3193;SDS011;1608;50.860;13.466;2023-02-15T06:09:49;12.80;;;5.67;;
3193;SDS011;1608;50.860;13.466;2023-02-15T06:12:16;9.70;;;5.17;;
3193;SDS011;1608;50.860;13.466;2023-02-15T06:14:43;12.80;;;5.47;;
3193;SDS011;1608;50.860;13.466;2023-02-15T06:17:11;11.00;;;4.93;;
3193;SDS011;1608;50.860;13.466;2023-02-15T06:19:38;7.53;;;4.40;;
3193;SDS011;1608;50.860;13.466;2023-02-15T06:22:05;10.00;;;5.03;;
3193;SDS011;1608;50.860;13.466;2023-02-15T06:24:32;8.00;;;5.27;;
3193;SDS011;1608;50.860;13.466;2023-02-15T06:26:59;17.40;;;8.10;;
3193;SDS011;1608;50.860;13.466;2023-02-15T06:29:25;17.13;;;9.60;;
3193;SDS011;1608;50.860;13.466;2023-02-15T06:31:52;23.27;;;11.97;;
3193;SDS011;1608;50.860;13.466;2023-02-15T06:34:20;22.40;;;12.47;;
3193;SDS011;1608;50.860;13.466;2023-02-15T06:36:47;39.03;;;20.70;;
3193;SDS011;1608;50.860;13.466;2023-02-15T06:39:14;18.73;;;11.33;;
3193;SDS011;1608;50.860;13.466;2023-02-15T06:41:41;22.90;;;11.77;;
3193;SDS011;1608;50.860;13.466;2023-02-15T06:44:08;24.93;;;11.43;;
3193;SDS011;1608;50.860;13.466;2023-02-15T06:46:35;21.47;;;9.43;;
3193;SDS011;1608;50.860;13.466;2023-02-15T06:49:01;19.97;;;10.93;;
3193;SDS011;1608;50.860;13.466;2023-02-15T06:51:29;24.30;;;12.10;;
3193;SDS011;1608;50.860;13.466;2023-02-15T06:53:56;24.07;;;11.43;;
3193;SDS011;1608;50.860;13.466;2023-02-15T06:56:23;37.80;;;14.60;;
3193;SDS011;1608;50.860;13.466;2023-02-15T06:58:50;29.17;;;13.73;;
3193;SDS011;1608;50.860;13.466;2023-02-15T07:01:17;29.50;;;16.13;;
3193;SDS011;1608;50.860;13.466;2023-02-15T07:03:44;27.20;;;18.10;;
3193;SDS011;1608;50.860;13.466;2023-02-15T07:06:11;24.80;;;15.00;;
3193;SDS011;1608;50.860;13.466;2023-02-15T07:08:39;25.37;;;14.43;;
3193;SDS011;1608;50.860;13.466;2023-02-15T07:11:06;23.97;;;14.50;;
3193;SDS011;1608;50.860;13.466;2023-02-15T07:13:51;20.63;;;12.87;;
3193;SDS011;1608;50.860;13.466;2023-02-15T07:16:18;29.70;;;15.50;;
3193;SDS011;1608;50.860;13.466;2023-02-15T07:18:45;17.10;;;10.83;;
3193;SDS011;1608;50.860;13.466;2023-02-15T07:21:12;14.30;;;11.70;;
3193;SDS011;1608;50.860;13.466;2023-02-15T07:23:40;10.73;;;7.17;;
3193;SDS011;1608;50.860;13.466;2023-02-15T07:26:07;20.30;;;11.50;;
3193;SDS011;1608;50.860;13.466;2023-02-15T07:28:34;15.10;;;10.17;;
3193;SDS011;1608;50.860;13.466;2023-02-15T07:31:01;13.20;;;8.27;;
3193;SDS011;1608;50.860;13.466;2023-02-15T07:33:29;16.20;;;8.70;;
3193;SDS011;1608;50.860;13.466;2023-02-15T07:35:57;11.97;;;8.63;;
3193;SDS011;1608;50.860;13.466;2023-02-15T07:38:26;10.20;;;7.43;;
3193;SDS011;1608;50.860;13.466;2023-02-15T07:40:58;11.03;;;7.43;;
3193;SDS011;1608;50.860;13.466;2023-02-15T07:43:25;12.33;;;7.60;;
3193;SDS011;1608;50.860;13.466;2023-02-15T07:45:52;15.73;;;9.93;;
3193;SDS011;1608;50.860;13.466;2023-02-15T07:48:19;11.53;;;8.50;;
3193;SDS011;1608;50.860;13.466;2023-02-15T07:50:46;16.37;;;10.53;;
3193;SDS011;1608;50.860;13.466;2023-02-15T07:53:12;14.47;;;9.03;;
3193;SDS011;1608;50.860;13.466;2023-02-15T07:55:39;13.77;;;8.07;;
3193;SDS011;1608;50.860;13.466;2023-02-15T07:58:07;13.40;;;8.50;;
3193;SDS011;1608;50.860;13.466;2023-02-15T08:00:34;13.90;;;9.50;;
3193;SDS011;1608;50.860;13.466;2023-02-15T08:03:22;13.03;;;8.27;;
3193;SDS011;1608;50.860;13.466;2023-02-15T08:05:54;14.47;;;9.47;;
3193;SDS011;1608;50.860;13.466;2023-02-15T08:08:22;19.17;;;12.43;;
3193;SDS011;1608;50.860;13.466;2023-02-15T08:10:59;25.43;;;14.80;;
3193;SDS011;1608;50.860;13.466;2023-02-15T08:13:45;23.33;;;14.30;;
3193;SDS011;1608;50.860;13.466;2023-02-15T08:16:20;17.07;;;13.10;;
3193;SDS011;1608;50.860;13.466;2023-02-15T08:18:48;20.10;;;12.57;;
3193;SDS011;1608;50.860;13.466;2023-02-15T08:21:15;16.30;;;12.47;;
3193;SDS011;1608;50.860;13.466;2023-02-15T08:23:41;15.70;;;9.00;;
3193;SDS011;1608;50.860;13.466;2023-02-15T08:26:09;11.47;;;9.07;;
3193;SDS011;1608;50.860;13.466;2023-02-15T08:28:36;12.47;;;8.93;;
3193;SDS011;1608;50.860;13.466;2023-02-15T08:31:07;16.50;;;10.73;;
3193;SDS011;1608;50.860;13.466;2023-02-15T08:33:35;26.07;;;20.07;;
3193;SDS011;1608;50.860;13.466;2023-02-15T08:36:03;28.07;;;19.97;;
3193;SDS011;1608;50.860;13.466;2023-02-15T08:38:30;23.67;;;16.00;;
3193;SDS011;1608;50.860;13.466;2023-02-15T08:40:58;20.70;;;15.10;;
3193;SDS011;1608;50.860;13.466;2023-02-15T08:43:34;17.73;;;12.40;;
3193;SDS011;1608;50.860;13.466;2023-02-15T08:46:01;11.63;;;9.00;;
3193;SDS011;1608;50.860;13.466;2023-02-15T08:48:29;17.30;;;11.00;;
3193;SDS011;1608;50.860;13.466;2023-02-15T08:50:56;22.17;;;14.20;;
3193;SDS011;1608;50.860;13.466;2023-02-15T08:53:23;17.10;;;14.73;;
3193;SDS011;1608;50.860;13.466;2023-02-15T08:55:54;17.33;;;12.77;;
3193;SDS011;1608;50.860;13.466;2023-02-15T08:58:22;15.00;;;11.47;;
3193;SDS011;1608;50.860;13.466;2023-02-15T09:00:49;17.00;;;12.30;;
3193;SDS011;1608;50.860;13.466;2023-02-15T09:03:15;14.43;;;12.53;;
3193;SDS011;1608;50.860;13.466;2023-02-15T09:05:44;16.37;;;12.67;;
3193;SDS011;1608;50.860;13.466;2023-02-15T09:08:10;13.70;;;11.17;;
3193;SDS011;1608;50.860;13.466;2023-02-15T09:10:37;15.70;;;10.70;;
3193;SDS011;1608;50.860;13.466;2023-02-15T09:13:04;11.50;;;7.90;;
3193;SDS011;1608;50.860;13.466;2023-02-15T09:15:31;13.20;;;8.07;;
3193;SDS011;1608;50.860;13.466;2023-02-15T09:17:58;9.63;;;6.73;;
3193;SDS011;1608;50.860;13.466;2023-02-15T09:20:26;8.43;;;6.67;;
3193;SDS011;1608;50.860;13.466;2023-02-15T09:22:55;8.87;;;7.40;;
3193;SDS011;1608;50.860;13.466;2023-02-15T09:25:22;8.30;;;7.13;;
3193;SDS011;1608;50.860;13.466;2023-02-15T09:27:48;7.30;;;6.27;;
3193;SDS011;1608;50.860;13.466;2023-02-15T09:30:15;9.63;;;6.13;;
3193;SDS011;1608;50.860;13.466;2023-02-15T09:32:42;6.50;;;5.37;;
3193;SDS011;1608;50.860;13.466;2023-02-15T09:35:11;10.43;;;6.27;;
3193;SDS011;1608;50.860;13.466;2023-02-15T09:37:37;8.13;;;5.87;;
3193;SDS011;1608;50.860;13.466;2023-02-15T09:40:06;10.07;;;6.70;;
3193;SDS011;1608;50.860;13.466;2023-02-15T09:42:42;8.87;;;6.23;;
3193;SDS011;1608;50.860;13.466;2023-02-15T09:45:36;7.67;;;5.93;;
3193;SDS011;1608;50.860;13.466;2023-02-15T09:48:20;7.70;;;4.90;;
3193;SDS011;1608;50.860;13.466;2023-02-15T09:51:08;8.47;;;5.77;;
3193;SDS011;1608;50.860;13.466;2023-02-15T09:53:48;7.47;;;5.50;;
3193;SDS011;1608;50.860;13.466;2023-02-15T09:56:32;10.10;;;5.23;;
3193;SDS011;1608;50.860;13.466;2023-02-15T09:59:05;22.03;;;7.97;;
3193;SDS011;1608;50.860;13.466;2023-02-15T10:01:42;6.83;;;5.53;;
3193;SDS011;1608;50.860;13.466;2023-02-15T10:04:31;8.50;;;6.50;;
3193;SDS011;1608;50.860;13.466;2023-02-15T10:07:13;10.03;;;6.40;;
3193;SDS011;1608;50.860;13.466;2023-02-15T10:09:55;12.60;;;6.23;;
3193;SDS011;1608;50.860;13.466;2023-02-15T10:12:35;9.73;;;7.97;;
3193;SDS011;1608;50.860;13.466;2023-02-15T10:15:23;8.50;;;6.67;;
3193;SDS011;1608;50.860;13.466;2023-02-15T10:18:06;9.20;;;7.00;;
3193;SDS011;1608;50.860;13.466;2023-02-15T10:20:45;9.80;;;7.47;;
3193;SDS011;1608;50.860;13.466;2023-02-15T10:23:24;9.10;;;5.90;;
3193;SDS011;1608;50.860;13.466;2023-02-15T10:26:11;10.90;;;7.30;;
3193;SDS011;1608;50.860;13.466;2023-02-15T10:28:45;10.60;;;7.10;;
3193;SDS011;1608;50.860;13.466;2023-02-15T10:31:19;12.07;;;6.30;;
3193;SDS011;1608;50.860;13.466;2023-02-15T10:33:51;8.60;;;7.13;;
3193;SDS011;1608;50.860;13.466;2023-02-15T10:36:32;13.27;;;7.20;;
3193;SDS011;1608;50.860;13.466;2023-02-15T10:39:23;11.53;;;6.57;;
3193;SDS011;1608;50.860;13.466;2023-02-15T10:41:57;8.03;;;5.03;;
3193;SDS011;1608;50.860;13.466;2023-02-15T10:44:37;6.57;;;4.43;;
3193;SDS011;1608;50.860;13.466;2023-02-15T10:50:03;4.60;;;3.23;;
3193;SDS011;1608;50.860;13.466;2023-02-15T10:52:42;3.80;;;2.93;;
3193;SDS011;1608;50.860;13.466;2023-02-15T10:55:21;6.30;;;3.97;;
3193;SDS011;1608;50.860;13.466;2023-02-15T10:57:59;5.33;;;3.97;;
3193;SDS011;1608;50.860;13.466;2023-02-15T11:00:34;3.43;;;3.03;;
3193;SDS011;1608;50.860;13.466;2023-02-15T11:03:12;5.50;;;3.60;;
3193;SDS011;1608;50.860;13.466;2023-02-15T11:05:52;3.50;;;2.63;;
3193;SDS011;1608;50.860;13.466;2023-02-15T11:08:29;4.97;;;2.70;;
3193;SDS011;1608;50.860;13.466;2023-02-15T11:10:59;4.77;;;2.60;;
3193;SDS011;1608;50.860;13.466;2023-02-15T11:13:31;3.17;;;2.70;;
3193;SDS011;1608;50.860;13.466;2023-02-15T11:16:02;4.17;;;3.20;;
3193;SDS011;1608;50.860;13.466;2023-02-15T11:18:32;5.00;;;2.57;;
3193;SDS011;1608;50.860;13.466;2023-02-15T11:21:04;6.03;;;2.73;;
3193;SDS011;1608;50.860;13.466;2023-02-15T11:23:35;3.97;;;2.30;;
3193;SDS011;1608;50.860;13.466;2023-02-15T11:26:09;3.40;;;1.87;;
3193;SDS011;1608;50.860;13.466;2023-02-15T11:28:42;3.47;;;2.37;;
3193;SDS011;1608;50.860;13.466;2023-02-15T11:31:16;6.83;;;2.43;;
3193;SDS011;1608;50.860;13.466;2023-02-15T11:33:45;3.33;;;2.10;;
3193;SDS011;1608;50.860;13.466;2023-02-15T11:36:17;3.30;;;2.60;;
3193;SDS011;1608;50.860;13.466;2023-02-15T11:38:47;4.27;;;2.23;;
3193;SDS011;1608;50.860;13.466;2023-02-15T11:41:19;5.23;;;1.93;;
3193;SDS011;1608;50.860;13.466;2023-02-15T11:43:50;4.67;;;2.03;;
3193;SDS011;1608;50.860;13.466;2023-02-15T11:46:24;2.63;;;2.03;;
3193;SDS011;1608;50.860;13.466;2023-02-15T11:48:50;2.80;;;2.30;;
3193;SDS011;1608;50.860;13.466;2023-02-15T11:51:18;3.20;;;2.40;;
3193;SDS011;1608;50.860;13.466;2023-02-15T11:53:47;4.47;;;2.50;;
3193;SDS011;1608;50.860;13.466;2023-02-15T11:56:14;4.43;;;2.30;;
3193;SDS011;1608;50.860;13.466;2023-02-15T11:58:43;5.50;;;3.30;;
3193;SDS011;1608;50.860;13.466;2023-02-15T12:01:14;3.87;;;2.53;;
3193;SDS011;1608;50.860;13.466;2023-02-15T12:03:48;6.67;;;2.67;;
3193;SDS011;1608;50.860;13.466;2023-02-15T12:06:19;2.90;;;2.10;;
3193;SDS011;1608;50.860;13.466;2023-02-15T12:08:59;2.70;;;1.97;;
3193;SDS011;1608;50.860;13.466;2023-02-15T12:11:32;2.60;;;2.10;;
3193;SDS011;1608;50.860;13.466;2023-02-15T12:14:02;3.30;;;2.60;;
3193;SDS011;1608;50.860;13.466;2023-02-15T12:16:32;4.20;;;2.53;;
3193;SDS011;1608;50.860;13.466;2023-02-15T12:19:12;3.50;;;1.97;;
3193;SDS011;1608;50.860;13.466;2023-02-15T12:21:48;4.13;;;2.60;;
3193;SDS011;1608;50.860;13.466;2023-02-15T12:24:18;2.57;;;2.10;;
3193;SDS011;1608;50.860;13.466;2023-02-15T12:26:55;3.23;;;1.93;;
3193;SDS011;1608;50.860;13.466;2023-02-15T12:29:25;3.80;;;2.50;;
3193;SDS011;1608;50.860;13.466;2023-02-15T12:31:55;4.50;;;2.43;;
3193;SDS011;1608;50.860;13.466;2023-02-15T12:34:26;5.03;;;2.20;;
3193;SDS011;1608;50.860;13.466;2023-02-15T12:36:56;2.93;;;1.80;;
3193;SDS011;1608;50.860;13.466;2023-02-15T12:39:27;2.57;;;1.80;;
3193;SDS011;1608;50.860;13.466;2023-02-15T12:41:59;3.53;;;2.50;;
3193;SDS011;1608;50.860;13.466;2023-02-15T12:44:29;1.93;;;1.80;;
3193;SDS011;1608;50.860;13.466;2023-02-15T12:46:58;6.40;;;2.20;;
3193;SDS011;1608;50.860;13.466;2023-02-15T12:49:28;2.23;;;1.60;;
3193;SDS011;1608;50.860;13.466;2023-02-15T12:51:56;5.53;;;2.67;;
3193;SDS011;1608;50.860;13.466;2023-02-15T12:57:26;3.63;;;1.80;;
3193;SDS011;1608;50.860;13.466;2023-02-15T12:59:54;3.00;;;1.70;;
3193;SDS011;1608;50.860;13.466;2023-02-15T13:02:24;3.13;;;2.23;;
3193;SDS011;1608;50.860;13.466;2023-02-15T13:04:54;2.70;;;1.97;;
3193;SDS011;1608;50.860;13.466;2023-02-15T13:07:23;6.47;;;2.37;;
3193;SDS011;1608;50.860;13.466;2023-02-15T13:09:55;3.07;;;2.10;;
3193;SDS011;1608;50.860;13.466;2023-02-15T13:12:23;2.50;;;2.03;;
3193;SDS011;1608;50.860;13.466;2023-02-15T13:14:52;3.00;;;2.07;;
3193;SDS011;1608;50.860;13.466;2023-02-15T13:17:21;4.63;;;2.30;;
3193;SDS011;1608;50.860;13.466;2023-02-15T13:19:56;4.10;;;2.57;;
3193;SDS011;1608;50.860;13.466;2023-02-15T13:22:27;4.93;;;2.30;;
3193;SDS011;1608;50.860;13.466;2023-02-15T13:25:01;3.27;;;2.40;;
3193;SDS011;1608;50.860;13.466;2023-02-15T13:27:32;7.10;;;2.60;;
3193;SDS011;1608;50.860;13.466;2023-02-15T13:30:02;3.27;;;2.03;;
3193;SDS011;1608;50.860;13.466;2023-02-15T13:32:37;4.80;;;2.40;;
3193;SDS011;1608;50.860;13.466;2023-02-15T13:35:10;3.30;;;3.00;;
3193;SDS011;1608;50.860;13.466;2023-02-15T13:37:45;3.20;;;2.00;;
3193;SDS011;1608;50.860;13.466;2023-02-15T13:40:32;3.37;;;2.10;;
3193;SDS011;1608;50.860;13.466;2023-02-15T13:43:05;2.93;;;1.90;;
3193;SDS011;1608;50.860;13.466;2023-02-15T13:45:47;3.10;;;2.30;;
3193;SDS011;1608;50.860;13.466;2023-02-15T13:48:24;3.67;;;2.47;;
3193;SDS011;1608;50.860;13.466;2023-02-15T13:51:03;4.30;;;2.83;;
3193;SDS011;1608;50.860;13.466;2023-02-15T13:53:43;4.83;;;3.20;;
3193;SDS011;1608;50.860;13.466;2023-02-15T13:56:25;3.60;;;2.93;;
3193;SDS011;1608;50.860;13.466;2023-02-15T13:59:05;4.23;;;2.43;;
3193;SDS011;1608;50.860;13.466;2023-02-15T14:01:55;5.93;;;2.60;;
3193;SDS011;1608;50.860;13.466;2023-02-15T14:07:29;3.90;;;2.40;;
3193;SDS011;1608;50.860;13.466;2023-02-15T14:10:17;2.90;;;2.60;;
3193;SDS011;1608;50.860;13.466;2023-02-15T14:13:27;3.50;;;2.23;;
3193;SDS011;1608;50.860;13.466;2023-02-15T14:16:13;4.17;;;2.53;;
3193;SDS011;1608;50.860;13.466;2023-02-15T14:18:47;3.07;;;2.80;;
3193;SDS011;1608;50.860;13.466;2023-02-15T14:21:18;3.70;;;2.70;;
3193;SDS011;1608;50.860;13.466;2023-02-15T14:23:56;4.30;;;3.33;;
3193;SDS011;1608;50.860;13.466;2023-02-15T14:26:36;3.57;;;2.43;;
3193;SDS011;1608;50.860;13.466;2023-02-15T14:29:11;4.00;;;2.40;;
3193;SDS011;1608;50.860;13.466;2023-02-15T14:31:50;4.97;;;2.37;;
3193;SDS011;1608;50.860;13.466;2023-02-15T14:34:22;4.50;;;2.37;;
3193;SDS011;1608;50.860;13.466;2023-02-15T14:36:51;3.40;;;2.07;;
3193;SDS011;1608;50.860;13.466;2023-02-15T14:39:25;6.10;;;2.73;;
3193;SDS011;1608;50.860;13.466;2023-02-15T14:42:17;6.17;;;2.97;;
3193;SDS011;1608;50.860;13.466;2023-02-15T14:44:51;6.00;;;3.40;;
3193;SDS011;1608;50.860;13.466;2023-02-15T14:47:25;5.00;;;4.07;;
3193;SDS011;1608;50.860;13.466;2023-02-15T14:49:56;5.20;;;3.50;;
3193;SDS011;1608;50.860;13.466;2023-02-15T14:52:24;6.40;;;4.87;;
3193;SDS011;1608;50.860;13.466;2023-02-15T14:57:58;8.67;;;5.43;;
3193;SDS011;1608;50.860;13.466;2023-02-15T15:00:30;7.00;;;5.00;;
3193;SDS011;1608;50.860;13.466;2023-02-15T15:03:02;7.00;;;4.60;;
3193;SDS011;1608;50.860;13.466;2023-02-15T15:05:46;5.90;;;4.50;;
3193;SDS011;1608;50.860;13.466;2023-02-15T15:08:21;7.23;;;4.47;;
3193;SDS011;1608;50.860;13.466;2023-02-15T15:10:52;6.10;;;4.40;;
3193;SDS011;1608;50.860;13.466;2023-02-15T15:13:37;7.77;;;3.97;;
3193;SDS011;1608;50.860;13.466;2023-02-15T15:16:30;10.47;;;5.33;;
3193;SDS011;1608;50.860;13.466;2023-02-15T15:22:32;9.23;;;5.53;;
3193;SDS011;1608;50.860;13.466;2023-02-15T15:25:01;8.77;;;5.87;;
3193;SDS011;1608;50.860;13.466;2023-02-15T15:27:37;6.27;;;4.20;;
3193;SDS011;1608;50.860;13.466;2023-02-15T15:39:58;9.87;;;5.00;;
3193;SDS011;1608;50.860;13.466;2023-02-15T15:42:48;11.50;;;6.43;;
3193;SDS011;1608;50.860;13.466;2023-02-15T15:48:19;7.63;;;5.40;;
3193;SDS011;1608;50.860;13.466;2023-02-15T15:51:00;9.27;;;6.13;;
3193;SDS011;1608;50.860;13.466;2023-02-15T15:53:33;9.90;;;6.03;;
3193;SDS011;1608;50.860;13.466;2023-02-15T15:56:06;10.63;;;6.00;;